createdAt,value
2022-09-12T00:02:03.969Z,31.98
2022-09-12T00:04:30.849Z,28.83
2022-09-12T00:06:57.713Z,31.45
2022-09-12T00:09:24.522Z,31.95
2022-09-12T00:11:51.344Z,33.15
2022-09-12T00:14:19.696Z,31.60
2022-09-12T00:16:46.898Z,30.20
2022-09-12T00:19:13.812Z,34.22
2022-09-12T00:21:41.143Z,30.63
2022-09-12T00:24:09.473Z,28.83
2022-09-12T00:26:36.735Z,33.47
2022-09-12T00:29:04.415Z,33.70
2022-09-12T00:31:31.382Z,31.20
2022-09-12T00:34:00.872Z,29.27
2022-09-12T00:36:29.921Z,36.70
2022-09-12T00:38:56.870Z,30.02
2022-09-12T00:41:26.880Z,34.15
2022-09-12T00:43:58.676Z,30.65
2022-09-12T00:46:41.952Z,32.65
2022-09-12T00:51:45.600Z,29.38
2022-09-12T00:54:26.186Z,32.33
2022-09-12T00:56:57.342Z,37.42
2022-09-12T00:59:37.219Z,33.33
2022-09-12T01:02:04.247Z,34.40
2022-09-12T01:04:32.020Z,31.27
2022-09-12T01:06:59.000Z,32.63
2022-09-12T01:09:25.844Z,29.38
2022-09-12T01:11:53.628Z,32.20
2022-09-12T01:14:21.142Z,30.42
2022-09-12T01:16:50.074Z,33.13
2022-09-12T01:19:43.016Z,29.92
2022-09-12T01:22:47.510Z,29.73
2022-09-12T01:25:35.888Z,35.42
2022-09-12T01:28:34.799Z,31.95
2022-09-12T01:31:08.668Z,34.15
2022-09-12T01:33:47.762Z,34.88
2022-09-12T01:36:34.672Z,30.98
2022-09-12T01:39:06.056Z,33.30
2022-09-12T01:41:54.930Z,35.05
2022-09-12T01:44:33.231Z,32.30
2022-09-12T01:47:34.186Z,32.88
2022-09-12T01:50:09.746Z,33.25
2022-09-12T01:52:49.503Z,32.80
2022-09-12T01:55:25.878Z,31.73
2022-09-12T01:58:00.304Z,32.78
2022-09-12T02:00:27.401Z,31.88
2022-09-12T02:03:02.778Z,31.15
2022-09-12T02:05:41.085Z,36.05
2022-09-12T02:08:13.144Z,35.65
2022-09-12T02:10:50.696Z,34.42
2022-09-12T02:13:24.720Z,36.15
2022-09-12T02:15:58.385Z,29.73
2022-09-12T02:18:27.553Z,40.08
2022-09-12T02:20:56.240Z,36.38
2022-09-12T02:23:28.695Z,33.50
2022-09-12T02:26:01.157Z,39.72
2022-09-12T02:28:34.778Z,40.45
2022-09-12T02:31:27.472Z,37.05
2022-09-12T02:34:09.839Z,34.13
2022-09-12T02:36:52.175Z,35.70
2022-09-12T02:39:21.215Z,38.77
2022-09-12T02:41:52.052Z,33.67
2022-09-12T02:44:19.610Z,35.58
2022-09-12T02:46:53.671Z,35.13
2022-09-12T02:49:20.695Z,39.13
2022-09-12T02:51:48.755Z,32.85
2022-09-12T02:54:17.768Z,34.83
2022-09-12T02:56:46.176Z,37.78
2022-09-12T02:59:16.596Z,38.05
2022-09-12T03:02:12.389Z,37.42
2022-09-12T03:05:16.902Z,34.83
2022-09-12T03:07:52.628Z,38.47
2022-09-12T03:10:33.308Z,32.38
2022-09-12T03:13:41.294Z,35.83
2022-09-12T03:16:49.945Z,35.70
2022-09-12T03:19:52.824Z,35.30
2022-09-12T03:22:28.460Z,40.93
2022-09-12T03:25:16.479Z,36.40
2022-09-12T03:27:56.367Z,37.08
2022-09-12T03:30:23.476Z,37.95
2022-09-12T03:32:52.109Z,40.00
2022-09-12T03:35:23.280Z,37.45
2022-09-12T03:37:50.992Z,37.17
2022-09-12T03:40:18.463Z,35.42
2022-09-12T03:42:45.309Z,46.30
2022-09-12T03:45:12.167Z,39.50
2022-09-12T03:47:39.706Z,38.53
2022-09-12T03:50:07.095Z,39.33
2022-09-12T03:52:34.047Z,38.38
2022-09-12T03:55:00.923Z,37.05
2022-09-12T03:57:27.778Z,35.85
2022-09-12T03:59:54.593Z,37.03
2022-09-12T04:02:21.452Z,38.58
2022-09-12T04:04:48.920Z,41.60
2022-09-12T04:07:16.781Z,37.47
2022-09-12T04:09:43.595Z,41.30
2022-09-12T04:12:10.713Z,41.65
2022-09-12T04:14:37.676Z,39.42
2022-09-12T04:17:04.657Z,44.40
2022-09-12T04:19:31.550Z,40.17
2022-09-12T04:21:58.345Z,45.05
2022-09-12T04:24:25.272Z,38.05
2022-09-12T04:26:52.207Z,42.53
2022-09-12T04:29:19.223Z,46.97
2022-09-12T04:31:46.107Z,44.15
2022-09-12T04:34:12.900Z,51.22
2022-09-12T04:36:39.921Z,45.35
2022-09-12T04:39:07.823Z,44.40
2022-09-12T04:41:37.321Z,46.58
2022-09-12T04:44:08.641Z,44.33
2022-09-12T04:46:38.708Z,50.72
2022-09-12T04:49:05.834Z,48.75
2022-09-12T04:51:35.970Z,45.47
2022-09-12T04:54:15.281Z,42.78
2022-09-12T04:56:45.886Z,46.22
2022-09-12T04:59:14.353Z,47.88
2022-09-12T05:01:41.670Z,46.38
2022-09-12T05:04:10.815Z,47.70
2022-09-12T05:06:38.375Z,45.88
2022-09-12T05:09:06.927Z,46.15
2022-09-12T05:14:25.365Z,52.70
2022-09-12T05:16:52.377Z,47.03
2022-09-12T05:19:19.275Z,56.10
2022-09-12T05:21:46.108Z,54.30
2022-09-12T05:24:13.015Z,56.78
2022-09-12T05:26:39.833Z,64.55
2022-09-12T05:29:07.264Z,60.13
2022-09-12T05:31:35.010Z,58.83
2022-09-12T05:34:04.712Z,56.22
2022-09-12T05:36:32.095Z,65.38
2022-09-12T05:39:01.923Z,62.60
2022-09-12T05:41:31.048Z,67.20
2022-09-12T05:44:00.644Z,57.92
2022-09-12T05:46:30.710Z,61.70
2022-09-12T05:48:58.479Z,75.53
2022-09-12T05:51:28.146Z,62.42
2022-09-12T05:54:01.190Z,62.88
2022-09-12T05:56:30.712Z,62.78
2022-09-12T05:59:05.736Z,62.42
2022-09-12T06:01:34.587Z,63.25
2022-09-12T06:04:04.060Z,63.58
2022-09-12T06:06:32.952Z,58.55
2022-09-12T06:09:01.957Z,56.38
2022-09-12T06:11:31.762Z,57.80
2022-09-12T06:14:00.087Z,56.35
2022-09-12T06:16:32.800Z,50.80
2022-09-12T06:19:01.848Z,54.28
2022-09-12T06:21:30.820Z,61.80
2022-09-12T06:24:01.685Z,54.15
2022-09-12T06:26:29.324Z,54.33
2022-09-12T06:28:58.223Z,49.92
2022-09-12T06:31:31.266Z,49.95
2022-09-12T06:36:32.254Z,56.28
2022-09-12T06:39:02.136Z,52.03
2022-09-12T06:41:30.036Z,54.67
2022-09-12T06:43:57.788Z,51.40
2022-09-12T06:46:25.949Z,48.67
2022-09-12T06:48:53.198Z,47.05
2022-09-12T06:51:20.601Z,44.25
2022-09-12T06:53:49.005Z,46.97
2022-09-12T06:56:21.358Z,43.35
2022-09-12T06:58:49.815Z,41.33
2022-09-12T07:01:21.911Z,50.33
2022-09-12T07:03:55.228Z,47.93
2022-09-12T07:06:31.533Z,43.05
2022-09-12T07:08:59.805Z,40.85
2022-09-12T07:11:31.731Z,41.22
2022-09-12T07:14:00.136Z,40.45
2022-09-12T07:16:27.345Z,45.20
2022-09-12T07:18:57.264Z,41.63
2022-09-12T07:21:24.550Z,40.70
2022-09-12T07:24:09.835Z,40.15
2022-09-12T07:26:37.524Z,35.92
2022-09-12T07:29:32.373Z,37.97
2022-09-12T07:31:52.165Z,35.97
2022-09-12T07:34:19.028Z,33.40
2022-09-12T07:36:45.876Z,32.20
2022-09-12T07:39:12.703Z,35.08
2022-09-12T07:41:39.683Z,34.30
2022-09-12T07:44:09.247Z,33.25
2022-09-12T07:46:36.203Z,34.72
2022-09-12T07:49:03.268Z,30.98
2022-09-12T07:51:30.805Z,31.02
2022-09-12T07:53:58.108Z,26.40
2022-09-12T07:56:29.690Z,29.85
2022-09-12T07:58:57.827Z,27.95
2022-09-12T08:01:24.938Z,28.25
2022-09-12T08:03:58.078Z,25.13
2022-09-12T08:06:27.228Z,24.10
2022-09-12T08:09:03.003Z,21.05
2022-09-12T08:11:30.593Z,22.48
2022-09-12T08:13:58.381Z,20.98
2022-09-12T08:16:28.141Z,24.05
2022-09-12T08:18:55.512Z,22.58
2022-09-12T08:21:25.447Z,20.08
2022-09-12T08:23:58.246Z,22.80
2022-09-12T08:26:25.175Z,21.67
2022-09-12T08:28:53.523Z,16.48
2022-09-12T08:31:22.328Z,20.65
2022-09-12T08:33:49.296Z,21.23
2022-09-12T08:36:24.298Z,18.35
2022-09-12T08:38:59.235Z,19.33
2022-09-12T08:41:40.740Z,16.35
2022-09-12T08:44:22.927Z,16.52
2022-09-12T08:47:14.379Z,15.63
2022-09-12T08:50:03.093Z,15.02
2022-09-12T08:52:33.908Z,17.80
2022-09-12T08:55:02.892Z,17.42
2022-09-12T08:57:29.778Z,14.68
2022-09-12T08:59:56.914Z,13.75
2022-09-12T09:03:04.951Z,11.20
2022-09-12T09:05:51.921Z,12.30
2022-09-12T09:08:28.441Z,13.27
2022-09-12T09:11:14.228Z,15.07
2022-09-12T09:14:08.723Z,11.13
2022-09-12T09:16:38.237Z,11.95
2022-09-12T09:19:17.524Z,14.73
2022-09-12T09:21:52.590Z,10.10
2022-09-12T09:24:24.967Z,11.80
2022-09-12T09:27:02.947Z,10.98
2022-09-12T09:29:53.545Z,11.63
2022-09-12T09:32:27.544Z,12.05
2022-09-12T09:34:54.879Z,8.82
2022-09-12T09:37:49.651Z,11.00
2022-09-12T09:40:39.569Z,9.10
2022-09-12T09:43:23.715Z,9.10
2022-09-12T09:45:52.237Z,7.38
2022-09-12T09:48:20.991Z,6.78
2022-09-12T09:50:49.567Z,7.93
2022-09-12T09:53:36.595Z,7.43
2022-09-12T09:56:10.297Z,7.30
2022-09-12T09:58:37.397Z,7.97
2022-09-12T10:01:15.692Z,7.90
2022-09-12T10:03:52.040Z,5.72
2022-09-12T10:06:26.194Z,7.18
2022-09-12T10:09:23.815Z,6.43
2022-09-12T10:11:52.357Z,5.97
2022-09-12T10:14:41.188Z,6.45
2022-09-12T10:17:33.128Z,7.90
2022-09-12T10:20:19.955Z,6.47
2022-09-12T10:22:48.475Z,8.38
2022-09-12T10:25:18.675Z,5.82
2022-09-12T10:27:52.167Z,5.40
2022-09-12T10:30:21.819Z,7.28
2022-09-12T10:32:54.151Z,8.95
2022-09-12T10:35:30.591Z,8.23
2022-09-12T10:38:02.521Z,6.78
2022-09-12T10:40:36.824Z,8.50
2022-09-12T10:43:17.826Z,9.82
2022-09-12T10:45:44.769Z,5.90
2022-09-12T10:48:33.564Z,5.30
2022-09-12T10:51:01.117Z,8.90
2022-09-12T10:53:34.654Z,8.38
2022-09-12T10:56:04.092Z,6.55
2022-09-12T10:58:46.998Z,4.72
2022-09-12T11:01:36.831Z,4.78
2022-09-12T11:04:41.926Z,5.28
2022-09-12T11:07:29.804Z,6.80
2022-09-12T11:10:40.474Z,8.50
2022-09-12T11:13:27.379Z,8.15
2022-09-12T11:16:03.220Z,5.03
2022-09-12T11:18:33.156Z,9.63
2022-09-12T11:21:28.172Z,5.60
2022-09-12T11:24:18.499Z,5.20
2022-09-12T11:26:54.454Z,5.35
2022-09-12T11:29:27.844Z,7.10
2022-09-12T11:32:32.238Z,5.03
2022-09-12T11:35:17.959Z,5.97
2022-09-12T11:37:53.689Z,5.38
2022-09-12T11:40:46.568Z,8.48
2022-09-12T11:43:38.043Z,5.18
2022-09-12T11:46:42.332Z,4.82
2022-09-12T11:49:15.708Z,6.18
2022-09-12T11:51:54.078Z,3.78
2022-09-12T11:54:33.660Z,3.67
2022-09-12T11:57:55.126Z,4.28
2022-09-12T12:00:23.662Z,5.25
2022-09-12T12:03:01.876Z,7.55
2022-09-12T12:05:52.247Z,7.35
2022-09-12T12:08:29.251Z,4.15
2022-09-12T12:11:04.321Z,3.40
2022-09-12T12:13:56.026Z,3.67
2022-09-12T12:16:35.261Z,7.72
2022-09-12T12:19:14.491Z,3.95
2022-09-12T12:21:46.217Z,3.67
2022-09-12T12:24:20.395Z,4.28
2022-09-12T12:27:23.178Z,4.82
2022-09-12T12:29:50.383Z,4.75
2022-09-12T12:32:17.628Z,3.13
2022-09-12T12:34:46.377Z,3.83
2022-09-12T12:37:19.345Z,3.22
2022-09-12T12:39:47.942Z,4.30
2022-09-12T12:42:35.797Z,4.53
2022-09-12T12:45:21.305Z,3.47
2022-09-12T12:48:08.701Z,4.53
2022-09-12T12:50:35.683Z,4.55
2022-09-12T12:53:07.329Z,5.20
2022-09-12T12:55:39.235Z,3.80
2022-09-12T12:58:18.418Z,5.97
2022-09-12T13:00:49.939Z,5.15
2022-09-12T13:03:30.853Z,6.40
2022-09-12T13:06:08.069Z,9.38
2022-09-12T13:08:57.069Z,10.52
2022-09-12T13:12:04.471Z,8.73
2022-09-12T13:14:35.600Z,3.85
2022-09-12T13:17:06.563Z,5.95
2022-09-12T13:19:36.939Z,4.35
2022-09-12T13:22:10.414Z,9.57
2022-09-12T13:24:47.127Z,10.60
2022-09-12T13:27:24.589Z,13.00
2022-09-12T13:30:09.168Z,8.55
2022-09-12T13:32:36.375Z,5.65
2022-09-12T13:35:14.035Z,4.00
2022-09-12T13:37:54.100Z,4.28
2022-09-12T13:40:42.692Z,4.95
2022-09-12T13:43:13.718Z,4.03
2022-09-12T13:45:41.452Z,3.40
2022-09-12T13:48:16.496Z,4.93
2022-09-12T13:50:57.480Z,5.63
2022-09-12T13:53:31.443Z,5.30
2022-09-12T13:55:59.707Z,6.30
2022-09-12T13:58:33.226Z,6.40
2022-09-12T14:01:01.127Z,7.15
2022-09-12T14:03:49.592Z,3.55
2022-09-12T14:06:18.935Z,3.65
2022-09-12T14:08:48.163Z,3.22
2022-09-12T14:11:27.447Z,4.40
2022-09-12T14:13:55.926Z,3.05
2022-09-12T14:16:24.060Z,5.95
2022-09-12T14:18:54.626Z,5.72
2022-09-12T14:21:41.926Z,3.80
2022-09-12T14:24:12.544Z,3.95
2022-09-12T14:26:41.207Z,3.25
2022-09-12T14:29:08.830Z,3.85
2022-09-12T14:31:38.530Z,3.47
2022-09-12T14:34:19.184Z,4.55
2022-09-12T14:36:51.659Z,6.88
2022-09-12T14:39:32.823Z,5.07
2022-09-12T14:42:18.826Z,7.18
2022-09-12T14:45:15.291Z,4.45
2022-09-12T14:47:43.590Z,4.57
2022-09-12T14:50:26.197Z,4.30
2022-09-12T14:53:08.149Z,3.60
2022-09-12T14:55:42.571Z,3.75
2022-09-12T14:58:22.552Z,4.18
2022-09-12T15:01:00.028Z,2.92
2022-09-12T15:03:36.708Z,3.35
2022-09-12T15:06:08.094Z,2.38
2022-09-12T15:08:35.062Z,3.60
2022-09-12T15:11:01.940Z,3.28
2022-09-12T15:13:38.597Z,2.28
2022-09-12T15:16:09.586Z,1.98
2022-09-12T15:18:36.560Z,3.83
2022-09-12T15:21:07.660Z,4.82
2022-09-12T15:23:51.914Z,4.75
2022-09-12T15:26:22.551Z,2.13
2022-09-12T15:28:50.247Z,3.50
2022-09-12T15:31:27.905Z,3.50
2022-09-12T15:33:55.999Z,2.40
2022-09-12T15:36:24.214Z,1.60
2022-09-12T15:38:51.890Z,4.68
2022-09-12T15:41:32.228Z,2.42
2022-09-12T15:43:59.440Z,3.28
2022-09-12T15:46:26.261Z,3.30
2022-09-12T15:48:53.092Z,2.63
2022-09-12T15:51:21.575Z,3.60
2022-09-12T15:53:49.600Z,1.40
2022-09-12T15:56:18.421Z,4.82
2022-09-12T15:58:57.730Z,2.03
2022-09-12T16:01:26.146Z,3.90
2022-09-12T16:03:53.045Z,2.40
2022-09-12T16:06:19.881Z,3.30
2022-09-12T16:08:46.852Z,2.17
2022-09-12T16:11:27.375Z,6.88
2022-09-12T16:13:56.029Z,3.70
2022-09-12T16:16:23.003Z,1.63
2022-09-12T16:18:49.886Z,10.07
2022-09-12T16:21:16.718Z,1.50
2022-09-12T16:23:44.727Z,5.03
2022-09-12T16:26:11.538Z,2.63
2022-09-12T16:28:38.965Z,2.95
2022-09-12T16:31:07.423Z,5.57
2022-09-12T16:33:35.051Z,1.92
2022-09-12T16:36:10.652Z,2.28
2022-09-12T16:38:45.495Z,1.63
2022-09-12T16:41:12.981Z,1.55
2022-09-12T16:43:40.483Z,2.58
2022-09-12T16:46:16.372Z,3.13
2022-09-12T16:48:52.628Z,2.25
2022-09-12T16:51:26.668Z,1.33
2022-09-12T16:53:55.471Z,3.15
2022-09-12T16:56:22.874Z,7.43
2022-09-12T16:58:49.850Z,1.38
2022-09-12T17:01:19.124Z,5.88
2022-09-12T17:03:46.281Z,3.90
2022-09-12T17:06:16.559Z,5.97
2022-09-12T17:08:46.436Z,5.20
2022-09-12T17:11:19.503Z,5.03
2022-09-12T17:14:10.121Z,4.25
2022-09-12T17:16:42.340Z,2.80
2022-09-12T17:19:17.294Z,2.85
2022-09-12T17:21:47.111Z,4.50
2022-09-12T17:24:13.947Z,3.47
2022-09-12T17:26:40.798Z,4.93
2022-09-12T17:29:07.731Z,1.83
2022-09-12T17:31:34.704Z,2.25
2022-09-12T17:34:02.044Z,3.33
2022-09-12T17:36:31.494Z,3.10
2022-09-12T17:38:58.695Z,2.20
2022-09-12T17:41:28.410Z,1.48
2022-09-12T17:43:57.254Z,3.17
2022-09-12T17:46:27.016Z,2.35
2022-09-12T17:48:56.372Z,2.95
2022-09-12T17:51:25.250Z,2.25
2022-09-12T17:54:01.273Z,2.03
2022-09-12T17:56:30.805Z,2.42
2022-09-12T17:58:59.169Z,4.25
2022-09-12T18:01:46.646Z,2.78
2022-09-12T18:04:13.740Z,2.33
2022-09-12T18:06:47.787Z,3.13
2022-09-12T18:09:19.401Z,4.38
2022-09-12T18:11:46.940Z,2.03
2022-09-12T18:14:14.478Z,3.67
2022-09-12T18:16:43.198Z,2.03
2022-09-12T18:19:11.269Z,2.38
2022-09-12T18:21:38.413Z,3.30
2022-09-12T18:24:05.726Z,1.88
2022-09-12T18:26:32.955Z,3.05
2022-09-12T18:29:00.020Z,3.88
2022-09-12T18:31:29.747Z,5.32
2022-09-12T18:33:57.392Z,3.90
2022-09-12T18:36:24.202Z,3.25
2022-09-12T18:38:51.336Z,2.08
2022-09-12T18:41:23.463Z,1.80
2022-09-12T18:43:57.670Z,2.95
2022-09-12T18:46:25.238Z,4.22
2022-09-12T18:48:52.255Z,4.32
2022-09-12T18:51:21.743Z,5.20
2022-09-12T18:53:54.885Z,2.22
2022-09-12T18:56:23.473Z,5.05
2022-09-12T18:58:52.813Z,2.70
2022-09-12T19:01:22.144Z,3.55
2022-09-12T19:03:49.821Z,4.05
2022-09-12T19:06:22.430Z,2.10
2022-09-12T19:08:50.860Z,3.60
2022-09-12T19:11:18.268Z,3.95
2022-09-12T19:13:48.903Z,3.10
2022-09-12T19:16:19.858Z,3.90
2022-09-12T19:18:49.922Z,6.03
2022-09-12T19:21:19.312Z,5.00
2022-09-12T19:23:46.492Z,3.97
2022-09-12T19:26:15.383Z,3.65
2022-09-12T19:28:43.328Z,3.25
2022-09-12T19:31:12.783Z,4.55
2022-09-12T19:33:40.574Z,5.13
2022-09-12T19:36:33.624Z,3.70
2022-09-12T19:38:58.509Z,2.33
2022-09-12T19:41:25.469Z,2.55
2022-09-12T19:43:52.383Z,7.05
2022-09-12T19:46:22.000Z,4.65
2022-09-12T19:48:49.623Z,2.38
2022-09-12T19:51:17.804Z,4.95
2022-09-12T19:53:45.508Z,4.25
2022-09-12T19:56:14.434Z,4.28
2022-09-12T19:58:44.339Z,2.85
2022-09-12T20:01:20.895Z,4.28
2022-09-12T20:03:49.057Z,2.53
2022-09-12T20:06:17.758Z,2.75
2022-09-12T20:08:45.852Z,4.90
2022-09-12T20:11:14.877Z,2.45
2022-09-12T20:13:42.062Z,3.65
2022-09-12T20:16:11.705Z,5.07
2022-09-12T20:18:38.917Z,3.92
2022-09-12T20:21:17.377Z,5.53
2022-09-12T20:23:45.167Z,4.85
2022-09-12T20:26:12.674Z,4.95
2022-09-12T20:28:41.246Z,3.00
2022-09-12T20:31:13.247Z,3.90
2022-09-12T20:33:40.657Z,3.27
2022-09-12T20:36:12.688Z,3.38
2022-09-12T20:38:40.463Z,3.20
2022-09-12T20:41:09.947Z,6.75
2022-09-12T20:43:38.806Z,2.97
2022-09-12T20:46:10.490Z,2.50
2022-09-12T20:48:40.574Z,5.50
2022-09-12T20:51:08.048Z,3.25
2022-09-12T20:53:35.612Z,4.20
2022-09-12T20:56:03.511Z,3.92
2022-09-12T20:58:30.357Z,8.07
2022-09-12T21:00:57.518Z,4.53
2022-09-12T21:03:25.623Z,3.65
2022-09-12T21:05:52.890Z,4.35
2022-09-12T21:08:19.845Z,4.45
2022-09-12T21:10:46.734Z,5.28
2022-09-12T21:13:14.031Z,4.05
2022-09-12T21:15:42.182Z,7.05
2022-09-12T21:18:09.423Z,7.75
2022-09-12T21:20:36.396Z,4.55
2022-09-12T21:23:03.262Z,5.50
2022-09-12T21:25:30.395Z,4.43
2022-09-12T21:27:57.377Z,5.80
2022-09-12T21:30:24.229Z,5.43
2022-09-12T21:32:51.122Z,5.25
2022-09-12T21:35:18.014Z,4.38
2022-09-12T21:37:44.953Z,4.45
2022-09-12T21:40:12.074Z,4.28
2022-09-12T21:42:38.983Z,5.22
2022-09-12T21:45:06.368Z,4.05
2022-09-12T21:47:33.295Z,6.43
2022-09-12T21:50:00.174Z,4.35
2022-09-12T21:52:27.675Z,6.43
2022-09-12T21:54:54.558Z,4.63
2022-09-12T21:57:21.545Z,7.00
2022-09-12T21:59:48.473Z,6.55
2022-09-12T22:02:16.114Z,5.47
2022-09-12T22:04:43.158Z,4.88
2022-09-12T22:07:10.781Z,4.13
2022-09-12T22:09:37.765Z,4.28
2022-09-12T22:12:04.812Z,6.00
2022-09-12T22:14:31.715Z,4.45
2022-09-12T22:16:58.980Z,6.07
2022-09-12T22:19:26.473Z,6.03
2022-09-12T22:22:12.222Z,4.85
2022-09-12T22:24:39.164Z,4.43
2022-09-12T22:27:06.806Z,4.65
2022-09-12T22:29:34.663Z,5.63
2022-09-12T22:32:01.738Z,6.95
2022-09-12T22:34:29.310Z,5.75
2022-09-12T22:36:56.703Z,6.10
2022-09-12T22:39:24.342Z,8.07
2022-09-12T22:41:51.260Z,6.68
2022-09-12T22:44:18.507Z,5.35
2022-09-12T22:46:45.423Z,4.47
2022-09-12T22:49:12.894Z,10.05
2022-09-12T22:51:39.899Z,5.82
2022-09-12T22:54:07.520Z,5.30
2022-09-12T22:56:35.134Z,5.00
2022-09-12T22:59:02.081Z,6.95
2022-09-12T23:01:28.990Z,8.60
2022-09-12T23:03:55.868Z,4.13
2022-09-12T23:06:22.756Z,4.57
2022-09-12T23:08:49.630Z,5.90
2022-09-12T23:11:19.261Z,4.32
2022-09-12T23:13:47.694Z,5.95
2022-09-12T23:16:21.353Z,4.85
2022-09-12T23:18:49.074Z,4.70
2022-09-12T23:21:18.225Z,9.45
2022-09-12T23:23:45.266Z,5.55
2022-09-12T23:26:23.520Z,5.20
2022-09-12T23:28:54.051Z,7.35
2022-09-12T23:31:26.159Z,5.63
2022-09-12T23:33:54.142Z,6.37
2022-09-12T23:36:22.451Z,4.43
2022-09-12T23:38:49.702Z,4.70
2022-09-12T23:41:18.438Z,5.57
2022-09-12T23:43:46.104Z,7.68
2022-09-12T23:46:14.629Z,5.95
2022-09-12T23:48:42.481Z,4.53
2022-09-12T23:51:10.142Z,5.95
2022-09-12T23:53:37.258Z,4.80
2022-09-12T23:56:05.006Z,6.00
2022-09-12T23:58:32.179Z,6.22
